sensor_id;sensor_type;location;lat;lon;timestamp;pressure;altitude;pressure_sealevel;temperature;humidity
21300;BME280;10809;49.476;11.016;2023-03-21T00:02:11;98502.50;;;9.13;59.50
21300;BME280;10809;49.476;11.016;2023-03-21T00:04:42;98502.50;;;9.13;59.49
21300;BME280;10809;49.476;11.016;2023-03-21T00:07:13;98501.63;;;9.12;59.99
21300;BME280;10809;49.476;11.016;2023-03-21T00:09:44;98507.78;;;9.13;59.55
21300;BME280;10809;49.476;11.016;2023-03-21T00:12:22;98495.59;;;9.10;59.19
21300;BME280;10809;49.476;11.016;2023-03-21T00:14:56;98496.41;;;9.11;59.26
21300;BME280;10809;49.476;11.016;2023-03-21T00:17:40;98503.59;;;9.09;59.42
21300;BME280;10809;49.476;11.016;2023-03-21T00:20:16;98507.06;;;9.09;59.28
21300;BME280;10809;49.476;11.016;2023-03-21T00:22:47;98499.19;;;9.08;59.25
21300;BME280;10809;49.476;11.016;2023-03-21T00:25:21;98502.78;;;9.07;59.54
21300;BME280;10809;49.476;11.016;2023-03-21T00:28:01;98497.50;;;9.07;58.96
21300;BME280;10809;49.476;11.016;2023-03-21T00:30:32;98504.50;;;9.08;59.11
21300;BME280;10809;49.476;11.016;2023-03-21T00:33:05;98498.38;;;9.07;59.57
21300;BME280;10809;49.476;11.016;2023-03-21T00:35:41;98503.59;;;9.09;59.12
21300;BME280;10809;49.476;11.016;2023-03-21T00:38:18;98498.38;;;9.07;58.97
21300;BME280;10809;49.476;11.016;2023-03-21T00:40:58;98483.44;;;9.06;58.98
21300;BME280;10809;49.476;11.016;2023-03-21T00:43:29;98486.94;;;9.07;58.82
21300;BME280;10809;49.476;11.016;2023-03-21T00:46:04;98483.44;;;9.06;59.17
21300;BME280;10809;49.476;11.016;2023-03-21T00:48:35;98486.94;;;9.07;59.22
21300;BME280;10809;49.476;11.016;2023-03-21T00:51:13;98474.66;;;9.06;59.26
21300;BME280;10809;49.476;11.016;2023-03-21T00:53:57;98472.03;;;9.06;58.97
21300;BME280;10809;49.476;11.016;2023-03-21T00:56:31;98468.59;;;9.04;59.09
21300;BME280;10809;49.476;11.016;2023-03-21T00:59:02;98471.31;;;9.02;58.80
21300;BME280;10809;49.476;11.016;2023-03-21T01:01:45;98460.88;;;8.99;59.19
21300;BME280;10809;49.476;11.016;2023-03-21T01:04:16;98463.59;;;8.98;58.82
21300;BME280;10809;49.476;11.016;2023-03-21T01:06:47;98462.81;;;8.96;58.94
21300;BME280;10809;49.476;11.016;2023-03-21T01:09:25;98453.31;;;8.92;58.79
21300;BME280;10809;49.476;11.016;2023-03-21T01:11:56;98456.03;;;8.90;58.98
21300;BME280;10809;49.476;11.016;2023-03-21T01:14:33;98464.09;;;8.87;59.05
21300;BME280;10809;49.476;11.016;2023-03-21T01:17:04;98459.81;;;8.85;59.13
21300;BME280;10809;49.476;11.016;2023-03-21T01:19:35;98459.03;;;8.83;59.48
21300;BME280;10809;49.476;11.016;2023-03-21T01:22:08;98460.88;;;8.81;59.22
21300;BME280;10809;49.476;11.016;2023-03-21T01:24:39;98460.00;;;8.80;59.30
21300;BME280;10809;49.476;11.016;2023-03-21T01:27:10;98458.31;;;8.79;59.00
21300;BME280;10809;49.476;11.016;2023-03-21T01:29:40;98457.50;;;8.77;59.10
21300;BME280;10809;49.476;11.016;2023-03-21T01:32:13;98456.75;;;8.75;59.57
21300;BME280;10809;49.476;11.016;2023-03-21T01:34:47;98457.66;;;8.74;59.26
21300;BME280;10809;49.476;11.016;2023-03-21T01:37:20;98458.50;;;8.75;59.33
21300;BME280;10809;49.476;11.016;2023-03-21T01:39:53;98450.66;;;8.73;59.56
21300;BME280;10809;49.476;11.016;2023-03-21T01:42:39;98448.09;;;8.72;59.56
21300;BME280;10809;49.476;11.016;2023-03-21T01:48:20;98444.59;;;8.71;59.17
21300;BME280;10809;49.476;11.016;2023-03-21T01:50:55;98454.38;;;8.69;59.26
21300;BME280;10809;49.476;11.016;2023-03-21T01:53:49;98441.25;;;8.68;59.21
21300;BME280;10809;49.476;11.016;2023-03-21T01:56:26;98442.09;;;8.68;59.06
21300;BME280;10809;49.476;11.016;2023-03-21T01:59:11;98440.41;;;8.67;59.56
21300;BME280;10809;49.476;11.016;2023-03-21T02:02:22;98441.34;;;8.66;59.28
21300;BME280;10809;49.476;11.016;2023-03-21T02:05:05;98441.34;;;8.66;59.32
21300;BME280;10809;49.476;11.016;2023-03-21T02:07:38;98440.53;;;8.64;59.10
21300;BME280;10809;49.476;11.016;2023-03-21T02:10:15;98441.41;;;8.65;59.25
21300;BME280;10809;49.476;11.016;2023-03-21T02:12:50;98437.03;;;8.64;59.09
21300;BME280;10809;49.476;11.016;2023-03-21T02:15:25;98431.81;;;8.62;59.36
21300;BME280;10809;49.476;11.016;2023-03-21T02:21:53;98431.84;;;8.61;58.87
21300;BME280;10809;49.476;11.016;2023-03-21T02:27:45;98424.06;;;8.58;58.87
21300;BME280;10809;49.476;11.016;2023-03-21T02:36:25;98431.44;;;8.51;58.98
21300;BME280;10809;49.476;11.016;2023-03-21T02:42:06;98429.84;;;8.47;58.99
21300;BME280;10809;49.476;11.016;2023-03-21T02:47:56;98435.25;;;8.44;59.39
21300;BME280;10809;49.476;11.016;2023-03-21T02:50:34;98433.50;;;8.45;59.75
21300;BME280;10809;49.476;11.016;2023-03-21T02:53:09;98424.78;;;8.43;59.38
21300;BME280;10809;49.476;11.016;2023-03-21T02:55:44;98432.69;;;8.43;59.71
21300;BME280;10809;49.476;11.016;2023-03-21T02:58:19;98430.06;;;8.43;59.38
21300;BME280;10809;49.476;11.016;2023-03-21T03:00:55;98430.06;;;8.43;59.43
21300;BME280;10809;49.476;11.016;2023-03-21T03:03:34;98420.38;;;8.43;59.39
21300;BME280;10809;49.476;11.016;2023-03-21T03:06:28;98418.66;;;8.42;59.15
21300;BME280;10809;49.476;11.016;2023-03-21T03:09:27;98419.50;;;8.43;59.58
21300;BME280;10809;49.476;11.016;2023-03-21T03:12:31;98417.78;;;8.42;59.65
21300;BME280;10809;49.476;11.016;2023-03-21T03:15:10;98416.88;;;8.43;59.70
21300;BME280;10809;49.476;11.016;2023-03-21T03:23:58;98415.97;;;8.44;59.96
21300;BME280;10809;49.476;11.016;2023-03-21T03:26:44;98413.31;;;8.44;59.68
21300;BME280;10809;49.476;11.016;2023-03-21T03:29:20;98414.22;;;8.43;59.84
21300;BME280;10809;49.476;11.016;2023-03-21T03:32:02;98413.38;;;8.42;59.74
21300;BME280;10809;49.476;11.016;2023-03-21T03:34:42;98410.69;;;8.44;59.75
21300;BME280;10809;49.476;11.016;2023-03-21T03:37:18;98413.38;;;8.42;59.54
21300;BME280;10809;49.476;11.016;2023-03-21T03:40:13;98411.59;;;8.43;59.57
21300;BME280;10809;49.476;11.016;2023-03-21T03:42:57;98414.22;;;8.43;60.10
21300;BME280;10809;49.476;11.016;2023-03-21T03:45:41;98415.16;;;8.42;59.87
21300;BME280;10809;49.476;11.016;2023-03-21T03:48:39;98407.25;;;8.42;59.99
21300;BME280;10809;49.476;11.016;2023-03-21T03:51:25;98409.03;;;8.41;59.72
21300;BME280;10809;49.476;11.016;2023-03-21T03:54:13;98403.75;;;8.41;59.97
21300;BME280;10809;49.476;11.016;2023-03-21T03:56:50;98397.63;;;8.41;59.75
21300;BME280;10809;49.476;11.016;2023-03-21T03:59:20;98409.09;;;8.40;59.81
21300;BME280;10809;49.476;11.016;2023-03-21T04:02:20;98408.25;;;8.39;59.88
21300;BME280;10809;49.476;11.016;2023-03-21T04:04:51;98405.69;;;8.38;59.74
21300;BME280;10809;49.476;11.016;2023-03-21T04:07:23;98400.47;;;8.36;59.93
21300;BME280;10809;49.476;11.016;2023-03-21T04:09:59;98403.19;;;8.35;60.05
21300;BME280;10809;49.476;11.016;2023-03-21T04:12:33;98402.38;;;8.33;60.03
21300;BME280;10809;49.476;11.016;2023-03-21T04:15:19;98406.88;;;8.31;60.01
21300;BME280;10809;49.476;11.016;2023-03-21T04:17:55;98399.03;;;8.29;59.94
21300;BME280;10809;49.476;11.016;2023-03-21T04:20:29;98400.09;;;8.25;60.20
21300;BME280;10809;49.476;11.016;2023-03-21T04:23:04;98396.66;;;8.23;60.25
21300;BME280;10809;49.476;11.016;2023-03-21T04:25:41;98397.66;;;8.21;60.13
21300;BME280;10809;49.476;11.016;2023-03-21T04:28:12;98396.88;;;8.19;59.96
21300;BME280;10809;49.476;11.016;2023-03-21T04:30:55;98399.63;;;8.16;60.28
21300;BME280;10809;49.476;11.016;2023-03-21T04:33:27;98395.38;;;8.13;60.49
21300;BME280;10809;49.476;11.016;2023-03-21T04:36:07;98398.13;;;8.10;60.25
21300;BME280;10809;49.476;11.016;2023-03-21T04:38:44;98398.28;;;8.07;60.18
21300;BME280;10809;49.476;11.016;2023-03-21T04:41:23;98397.47;;;8.05;60.34
21300;BME280;10809;49.476;11.016;2023-03-21T04:43:54;98395.91;;;8.01;60.30
21300;BME280;10809;49.476;11.016;2023-03-21T04:46:25;98395.97;;;8.00;60.36
21300;BME280;10809;49.476;11.016;2023-03-21T04:48:55;98397.81;;;7.98;60.54
21300;BME280;10809;49.476;11.016;2023-03-21T04:51:26;98396.19;;;7.95;60.60
21300;BME280;10809;49.476;11.016;2023-03-21T04:53:56;98400.66;;;7.93;60.52
21300;BME280;10809;49.476;11.016;2023-03-21T04:56:28;98392.88;;;7.90;60.35
21300;BME280;10809;49.476;11.016;2023-03-21T04:59:09;98392.06;;;7.88;60.64
21300;BME280;10809;49.476;11.016;2023-03-21T05:01:45;98392.16;;;7.87;60.74
21300;BME280;10809;49.476;11.016;2023-03-21T05:04:17;98387.88;;;7.84;60.49
21300;BME280;10809;49.476;11.016;2023-03-21T05:06:47;98389.72;;;7.82;60.51
21300;BME280;10809;49.476;11.016;2023-03-21T05:09:19;98387.13;;;7.80;60.93
21300;BME280;10809;49.476;11.016;2023-03-21T05:11:52;98390.72;;;7.79;61.05
21300;BME280;10809;49.476;11.016;2023-03-21T05:14:24;98386.38;;;7.78;60.95
21300;BME280;10809;49.476;11.016;2023-03-21T05:16:55;98399.56;;;7.78;61.03
21300;BME280;10809;49.476;11.016;2023-03-21T05:19:30;98398.69;;;7.78;61.08
21300;BME280;10809;49.476;11.016;2023-03-21T05:22:10;98403.03;;;7.79;61.05
21300;BME280;10809;49.476;11.016;2023-03-21T05:24:42;98402.19;;;7.78;61.17
21300;BME280;10809;49.476;11.016;2023-03-21T05:27:19;98403.94;;;7.78;60.91
21300;BME280;10809;49.476;11.016;2023-03-21T05:30:11;98403.88;;;7.79;61.10
21300;BME280;10809;49.476;11.016;2023-03-21T05:32:42;98402.13;;;7.80;61.26
21300;BME280;10809;49.476;11.016;2023-03-21T05:35:15;98397.69;;;7.80;61.12
21300;BME280;10809;49.476;11.016;2023-03-21T05:37:45;98404.69;;;7.82;61.10
21300;BME280;10809;49.476;11.016;2023-03-21T05:40:19;98403.75;;;7.82;61.18
21300;BME280;10809;49.476;11.016;2023-03-21T05:42:50;98405.41;;;7.85;61.30
21300;BME280;10809;49.476;11.016;2023-03-21T05:45:25;98405.31;;;7.87;61.49
21300;BME280;10809;49.476;11.016;2023-03-21T05:47:57;98400.84;;;7.89;61.20
21300;BME280;10809;49.476;11.016;2023-03-21T05:50:31;98401.59;;;7.92;61.52
21300;BME280;10809;49.476;11.016;2023-03-21T05:53:24;98400.59;;;7.95;61.93
21300;BME280;10809;49.476;11.016;2023-03-21T05:56:02;98412.69;;;7.99;61.15
21300;BME280;10809;49.476;11.016;2023-03-21T05:58:55;98414.38;;;8.01;61.58
21300;BME280;10809;49.476;11.016;2023-03-21T06:01:27;98412.44;;;8.05;61.63
21300;BME280;10809;49.476;11.016;2023-03-21T06:04:08;98417.63;;;8.06;61.55
21300;BME280;10809;49.476;11.016;2023-03-21T06:06:45;98421.81;;;8.12;61.14
21300;BME280;10809;49.476;11.016;2023-03-21T06:09:17;98420.81;;;8.14;61.45
21300;BME280;10809;49.476;11.016;2023-03-21T06:11:55;98423.25;;;8.19;61.12
21300;BME280;10809;49.476;11.016;2023-03-21T06:14:49;98409.91;;;8.22;61.33
21300;BME280;10809;49.476;11.016;2023-03-21T06:17:27;98417.69;;;8.25;61.09
21300;BME280;10809;49.476;11.016;2023-03-21T06:20:04;98415.78;;;8.28;61.15
21300;BME280;10809;49.476;11.016;2023-03-21T06:22:41;98419.16;;;8.32;61.01
21300;BME280;10809;49.476;11.016;2023-03-21T06:25:14;98427.75;;;8.35;60.95
21300;BME280;10809;49.476;11.016;2023-03-21T06:27:45;98425.06;;;8.37;60.88
21300;BME280;10809;49.476;11.016;2023-03-21T06:30:16;98419.63;;;8.40;60.80
21300;BME280;10809;49.476;11.016;2023-03-21T06:33:06;98423.88;;;8.44;60.74
21300;BME280;10809;49.476;11.016;2023-03-21T06:35:36;98424.56;;;8.47;60.80
21300;BME280;10809;49.476;11.016;2023-03-21T06:38:07;98417.38;;;8.51;60.73
21300;BME280;10809;49.476;11.016;2023-03-21T06:40:41;98418.09;;;8.54;60.73
21300;BME280;10809;49.476;11.016;2023-03-21T06:43:12;98419.59;;;8.60;61.10
21300;BME280;10809;49.476;11.016;2023-03-21T06:45:43;98410.56;;;8.65;61.24
21300;BME280;10809;49.476;11.016;2023-03-21T06:48:14;98415.47;;;8.73;60.85
21300;BME280;10809;49.476;11.016;2023-03-21T06:51:05;98410.72;;;8.81;61.09
21300;BME280;10809;49.476;11.016;2023-03-21T06:53:41;98411.22;;;8.89;60.58
21300;BME280;10809;49.476;11.016;2023-03-21T06:56:41;98413.44;;;8.98;60.69
21300;BME280;10809;49.476;11.016;2023-03-21T06:59:14;98412.19;;;9.05;60.56
21300;BME280;10809;49.476;11.016;2023-03-21T07:01:55;98410.13;;;9.11;60.39
21300;BME280;10809;49.476;11.016;2023-03-21T07:04:26;98412.53;;;9.16;60.49
21300;BME280;10809;49.476;11.016;2023-03-21T07:06:58;98414.00;;;9.21;60.22
21300;BME280;10809;49.476;11.016;2023-03-21T07:09:30;98421.56;;;9.29;60.47
21300;BME280;10809;49.476;11.016;2023-03-21T07:12:06;98413.22;;;9.38;60.64
21300;BME280;10809;49.476;11.016;2023-03-21T07:14:51;98406.53;;;9.48;60.74
21300;BME280;10809;49.476;11.016;2023-03-21T07:17:21;98410.13;;;9.64;61.04
21300;BME280;10809;49.476;11.016;2023-03-21T07:19:55;98408.44;;;9.80;60.59
21300;BME280;10809;49.476;11.016;2023-03-21T07:22:30;98411.16;;;9.96;59.91
21300;BME280;10809;49.476;11.016;2023-03-21T07:25:00;98400.88;;;10.07;59.71
21300;BME280;10809;49.476;11.016;2023-03-21T07:27:34;98411.84;;;10.16;59.23
21300;BME280;10809;49.476;11.016;2023-03-21T07:30:09;98411.44;;;10.24;59.10
21300;BME280;10809;49.476;11.016;2023-03-21T07:32:46;98410.25;;;10.29;59.22
21300;BME280;10809;49.476;11.016;2023-03-21T07:35:18;98419.53;;;10.38;59.28
21300;BME280;10809;49.476;11.016;2023-03-21T07:37:54;98419.81;;;10.49;59.25
21300;BME280;10809;49.476;11.016;2023-03-21T07:40:25;98416.59;;;10.59;59.15
21300;BME280;10809;49.476;11.016;2023-03-21T07:42:59;98414.97;;;10.72;59.01
21300;BME280;10809;49.476;11.016;2023-03-21T07:45:36;98422.88;;;10.89;59.60
21300;BME280;10809;49.476;11.016;2023-03-21T07:48:11;98416.03;;;11.16;60.75
21300;BME280;10809;49.476;11.016;2023-03-21T07:50:47;98418.25;;;11.55;61.15
21300;BME280;10809;49.476;11.016;2023-03-21T07:53:19;98416.59;;;11.98;61.62
21300;BME280;10809;49.476;11.016;2023-03-21T07:55:51;98413.75;;;12.44;61.35
21300;BME280;10809;49.476;11.016;2023-03-21T07:58:25;98403.47;;;12.94;60.63
21300;BME280;10809;49.476;11.016;2023-03-21T08:00:57;98400.41;;;13.41;60.36
21300;BME280;10809;49.476;11.016;2023-03-21T08:03:27;98400.91;;;13.87;59.88
21300;BME280;10809;49.476;11.016;2023-03-21T08:05:59;98397.97;;;14.29;59.60
21300;BME280;10809;49.476;11.016;2023-03-21T08:08:30;98397.81;;;14.69;58.49
21300;BME280;10809;49.476;11.016;2023-03-21T08:11:02;98395.81;;;15.09;57.43
21300;BME280;10809;49.476;11.016;2023-03-21T08:13:42;98398.47;;;15.45;56.62
21300;BME280;10809;49.476;11.016;2023-03-21T08:16:16;98393.28;;;15.78;55.43
21300;BME280;10809;49.476;11.016;2023-03-21T08:18:47;98390.38;;;16.05;54.87
21300;BME280;10809;49.476;11.016;2023-03-21T08:21:18;98394.69;;;16.29;54.39
21300;BME280;10809;49.476;11.016;2023-03-21T08:23:49;98391.94;;;16.53;53.81
21300;BME280;10809;49.476;11.016;2023-03-21T08:26:19;98386.59;;;16.75;52.48
21300;BME280;10809;49.476;11.016;2023-03-21T08:28:51;98391.22;;;16.95;51.96
21300;BME280;10809;49.476;11.016;2023-03-21T08:31:21;98388.16;;;17.11;51.66
21300;BME280;10809;49.476;11.016;2023-03-21T08:33:52;98380.03;;;17.23;51.28
21300;BME280;10809;49.476;11.016;2023-03-21T08:36:28;98374.38;;;17.37;50.63
21300;BME280;10809;49.476;11.016;2023-03-21T08:38:59;98369.38;;;17.44;48.91
21300;BME280;10809;49.476;11.016;2023-03-21T08:41:35;98375.59;;;17.44;48.08
21300;BME280;10809;49.476;11.016;2023-03-21T08:44:06;98369.63;;;17.41;48.41
21300;BME280;10809;49.476;11.016;2023-03-21T08:46:38;98362.84;;;17.37;48.20
21300;BME280;10809;49.476;11.016;2023-03-21T08:49:09;98367.59;;;17.33;47.97
21300;BME280;10809;49.476;11.016;2023-03-21T08:51:39;98374.19;;;17.29;47.37
21300;BME280;10809;49.476;11.016;2023-03-21T08:54:18;98368.47;;;17.23;48.17
21300;BME280;10809;49.476;11.016;2023-03-21T08:56:50;98366.53;;;17.14;46.46
21300;BME280;10809;49.476;11.016;2023-03-21T08:59:20;98362.16;;;17.02;46.75
21300;BME280;10809;49.476;11.016;2023-03-21T09:01:51;98365.69;;;16.91;46.52
21300;BME280;10809;49.476;11.016;2023-03-21T09:04:22;98366.56;;;16.81;46.48
21300;BME280;10809;49.476;11.016;2023-03-21T09:06:55;98363.75;;;16.71;46.28
21300;BME280;10809;49.476;11.016;2023-03-21T09:09:26;98361.06;;;16.60;46.36
21300;BME280;10809;49.476;11.016;2023-03-21T09:11:58;98364.59;;;16.50;46.25
21300;BME280;10809;49.476;11.016;2023-03-21T09:14:32;98365.44;;;16.39;47.00
21300;BME280;10809;49.476;11.016;2023-03-21T09:17:06;98362.63;;;16.29;46.79
21300;BME280;10809;49.476;11.016;2023-03-21T09:19:37;98366.72;;;16.22;46.59
21300;BME280;10809;49.476;11.016;2023-03-21T09:22:10;98368.06;;;16.17;47.07
21300;BME280;10809;49.476;11.016;2023-03-21T09:24:50;98354.06;;;16.13;46.97
21300;BME280;10809;49.476;11.016;2023-03-21T09:27:21;98359.66;;;16.10;47.23
21300;BME280;10809;49.476;11.016;2023-03-21T09:29:57;98358.06;;;16.08;46.89
21300;BME280;10809;49.476;11.016;2023-03-21T09:32:28;98355.75;;;16.03;46.84
21300;BME280;10809;49.476;11.016;2023-03-21T09:35:01;98356.06;;;15.99;45.93
21300;BME280;10809;49.476;11.016;2023-03-21T09:37:39;98355.84;;;15.91;46.28
21300;BME280;10809;49.476;11.016;2023-03-21T09:40:36;98354.59;;;15.84;47.38
21300;BME280;10809;49.476;11.016;2023-03-21T09:46:11;98344.69;;;15.62;46.58
21300;BME280;10809;49.476;11.016;2023-03-21T09:49:00;98348.28;;;15.50;46.96
21300;BME280;10809;49.476;11.016;2023-03-21T09:51:47;98346.50;;;15.38;46.58
21300;BME280;10809;49.476;11.016;2023-03-21T09:54:34;98345.34;;;15.30;46.58
21300;BME280;10809;49.476;11.016;2023-03-21T09:57:24;98343.38;;;15.21;46.20
21300;BME280;10809;49.476;11.016;2023-03-21T10:00:00;98338.50;;;15.15;46.42
21300;BME280;10809;49.476;11.016;2023-03-21T10:02:44;98339.78;;;15.09;46.56
21300;BME280;10809;49.476;11.016;2023-03-21T10:05:25;98335.53;;;15.07;46.43
21300;BME280;10809;49.476;11.016;2023-03-21T10:08:04;98335.63;;;15.05;45.90
21300;BME280;10809;49.476;11.016;2023-03-21T10:10:46;98331.28;;;15.04;45.23
21300;BME280;10809;49.476;11.016;2023-03-21T10:13:24;98326.81;;;15.05;45.37
21300;BME280;10809;49.476;11.016;2023-03-21T10:16:20;98326.81;;;15.05;45.71
21300;BME280;10809;49.476;11.016;2023-03-21T10:18:53;98317.81;;;15.06;45.16
21300;BME280;10809;49.476;11.016;2023-03-21T10:21:27;98318.69;;;15.06;45.45
21300;BME280;10809;49.476;11.016;2023-03-21T10:24:04;98318.47;;;15.09;45.81
21300;BME280;10809;49.476;11.016;2023-03-21T10:26:39;98316.41;;;15.13;45.66
21300;BME280;10809;49.476;11.016;2023-03-21T10:29:13;98309.91;;;15.17;45.65
21300;BME280;10809;49.476;11.016;2023-03-21T10:31:46;98301.66;;;15.20;45.37
21300;BME280;10809;49.476;11.016;2023-03-21T10:34:25;98298.66;;;15.24;45.54
21300;BME280;10809;49.476;11.016;2023-03-21T10:37:06;98293.69;;;15.31;46.22
21300;BME280;10809;49.476;11.016;2023-03-21T10:39:42;98291.66;;;15.34;45.51
21300;BME280;10809;49.476;11.016;2023-03-21T10:45:00;98288.09;;;15.46;45.81
21300;BME280;10809;49.476;11.016;2023-03-21T10:47:47;98288.59;;;15.51;45.96
21300;BME280;10809;49.476;11.016;2023-03-21T10:50:21;98286.44;;;15.56;45.41
21300;BME280;10809;49.476;11.016;2023-03-21T10:52:58;98285.47;;;15.57;44.45
21300;BME280;10809;49.476;11.016;2023-03-21T10:55:32;98283.78;;;15.56;44.29
21300;BME280;10809;49.476;11.016;2023-03-21T10:58:12;98278.56;;;15.55;45.18
21300;BME280;10809;49.476;11.016;2023-03-21T11:00:48;98274.91;;;15.56;44.83
21300;BME280;10809;49.476;11.016;2023-03-21T11:03:25;98278.31;;;15.58;45.34
21300;BME280;10809;49.476;11.016;2023-03-21T11:06:04;98276.13;;;15.63;45.22
21300;BME280;10809;49.476;11.016;2023-03-21T11:08:48;98269.63;;;15.67;45.70
21300;BME280;10809;49.476;11.016;2023-03-21T11:11:25;98271.81;;;15.73;45.23
21300;BME280;10809;49.476;11.016;2023-03-21T11:14:05;98262.34;;;15.80;45.14
21300;BME280;10809;49.476;11.016;2023-03-21T11:16:42;98256.53;;;15.86;45.58
21300;BME280;10809;49.476;11.016;2023-03-21T11:19:29;98265.03;;;15.91;45.34
21300;BME280;10809;49.476;11.016;2023-03-21T11:22:06;98264.56;;;15.97;45.00
21300;BME280;10809;49.476;11.016;2023-03-21T11:24:38;98256.19;;;16.01;44.02
21300;BME280;10809;49.476;11.016;2023-03-21T11:27:08;98255.09;;;16.04;43.91
21300;BME280;10809;49.476;11.016;2023-03-21T11:29:45;98246.94;;;16.05;43.94
21300;BME280;10809;49.476;11.016;2023-03-21T11:32:38;98252.06;;;16.08;44.94
21300;BME280;10809;49.476;11.016;2023-03-21T11:35:19;98250.13;;;16.10;44.73
21300;BME280;10809;49.476;11.016;2023-03-21T11:37:53;98244.53;;;16.13;44.32
21300;BME280;10809;49.476;11.016;2023-03-21T11:40:34;98247.72;;;16.18;44.42
21300;BME280;10809;49.476;11.016;2023-03-21T11:46:14;98242.59;;;16.26;44.83
21300;BME280;10809;49.476;11.016;2023-03-21T11:48:46;98227.31;;;16.28;43.98
21300;BME280;10809;49.476;11.016;2023-03-21T11:51:23;98229.63;;;16.33;43.56
21300;BME280;10809;49.476;11.016;2023-03-21T11:54:30;98217.94;;;16.34;44.48
21300;BME280;10809;49.476;11.016;2023-03-21T11:57:13;98225.72;;;16.37;44.80
21300;BME280;10809;49.476;11.016;2023-03-21T12:00:10;98221.00;;;16.40;44.39
21300;BME280;10809;49.476;11.016;2023-03-21T12:06:04;98209.19;;;16.43;44.55
21300;BME280;10809;49.476;11.016;2023-03-21T12:09:05;98214.28;;;16.46;44.58
21300;BME280;10809;49.476;11.016;2023-03-21T12:14:46;98206.50;;;16.54;44.71
21300;BME280;10809;49.476;11.016;2023-03-21T12:17:30;98198.25;;;16.57;43.67
21300;BME280;10809;49.476;11.016;2023-03-21T12:23:07;98192.25;;;16.65;43.50
21300;BME280;10809;49.476;11.016;2023-03-21T12:28:30;98182.06;;;16.70;43.33
21300;BME280;10809;49.476;11.016;2023-03-21T12:36:53;98168.53;;;16.82;43.73
21300;BME280;10809;49.476;11.016;2023-03-21T12:39:33;98160.13;;;16.87;43.33
21300;BME280;10809;49.476;11.016;2023-03-21T12:44:59;98162.03;;;16.96;43.41
21300;BME280;10809;49.476;11.016;2023-03-21T12:47:51;98162.59;;;16.99;43.56
21300;BME280;10809;49.476;11.016;2023-03-21T12:50:37;98164.91;;;17.04;43.23
21300;BME280;10809;49.476;11.016;2023-03-21T12:56:26;98146.75;;;17.07;43.25
21300;BME280;10809;49.476;11.016;2023-03-21T12:59:12;98148.22;;;17.11;43.39
21300;BME280;10809;49.476;11.016;2023-03-21T13:01:49;98145.53;;;17.11;42.76
21300;BME280;10809;49.476;11.016;2023-03-21T13:04:39;98141.00;;;17.12;43.18
21300;BME280;10809;49.476;11.016;2023-03-21T13:07:15;98134.63;;;17.14;43.04
21300;BME280;10809;49.476;11.016;2023-03-21T13:09:54;98131.81;;;17.16;42.49
21300;BME280;10809;49.476;11.016;2023-03-21T13:18:31;98120.97;;;17.17;42.63
21300;BME280;10809;49.476;11.016;2023-03-21T13:21:42;98119.13;;;17.18;43.16
21300;BME280;10809;49.476;11.016;2023-03-21T13:26:48;98111.69;;;17.21;42.80
21300;BME280;10809;49.476;11.016;2023-03-21T13:29:28;98107.88;;;17.24;42.73
21300;BME280;10809;49.476;11.016;2023-03-21T13:32:33;98111.03;;;17.29;43.12
21300;BME280;10809;49.476;11.016;2023-03-21T13:35:22;98111.50;;;17.34;42.94
21300;BME280;10809;49.476;11.016;2023-03-21T13:38:00;98107.69;;;17.36;42.18
21300;BME280;10809;49.476;11.016;2023-03-21T13:43:54;98103.75;;;17.40;42.60
21300;BME280;10809;49.476;11.016;2023-03-21T13:48:59;98101.09;;;17.40;41.75
21300;BME280;10809;49.476;11.016;2023-03-21T13:55:01;98090.97;;;17.44;42.40
21300;BME280;10809;49.476;11.016;2023-03-21T13:57:36;98083.66;;;17.46;42.70
21300;BME280;10809;49.476;11.016;2023-03-21T14:00:16;98083.53;;;17.47;42.16
21300;BME280;10809;49.476;11.016;2023-03-21T14:03:00;98086.75;;;17.51;42.40
21300;BME280;10809;49.476;11.016;2023-03-21T14:05:38;98086.53;;;17.54;41.71
21300;BME280;10809;49.476;11.016;2023-03-21T14:08:15;98078.38;;;17.55;41.90
21300;BME280;10809;49.476;11.016;2023-03-21T14:10:51;98077.25;;;17.58;42.06
21300;BME280;10809;49.476;11.016;2023-03-21T14:13:24;98071.03;;;17.57;41.54
21300;BME280;10809;49.476;11.016;2023-03-21T14:16:05;98072.88;;;17.57;41.88
21300;BME280;10809;49.476;11.016;2023-03-21T14:18:58;98077.50;;;17.55;41.95
21300;BME280;10809;49.476;11.016;2023-03-21T14:21:33;98074.81;;;17.55;41.75
21300;BME280;10809;49.476;11.016;2023-03-21T14:24:10;98071.28;;;17.54;41.44
21300;BME280;10809;49.476;11.016;2023-03-21T14:26:47;98065.22;;;17.52;41.25
21300;BME280;10809;49.476;11.016;2023-03-21T14:29:25;98061.84;;;17.50;41.55
21300;BME280;10809;49.476;11.016;2023-03-21T14:31:56;98054.91;;;17.48;41.19
21300;BME280;10809;49.476;11.016;2023-03-21T14:34:32;98057.03;;;17.44;41.17
21300;BME280;10809;49.476;11.016;2023-03-21T14:37:06;98053.91;;;17.39;41.29
21300;BME280;10809;49.476;11.016;2023-03-21T14:39:37;98054.03;;;17.38;41.25
21300;BME280;10809;49.476;11.016;2023-03-21T14:42:11;98048.94;;;17.35;41.41
21300;BME280;10809;49.476;11.016;2023-03-21T14:44:49;98047.25;;;17.34;41.50
21300;BME280;10809;49.476;11.016;2023-03-21T14:47:23;98054.28;;;17.35;41.38
21300;BME280;10809;49.476;11.016;2023-03-21T14:49:55;98047.25;;;17.34;41.62
21300;BME280;10809;49.476;11.016;2023-03-21T14:52:30;98055.97;;;17.36;41.69
21300;BME280;10809;49.476;11.016;2023-03-21T14:55:05;98055.16;;;17.35;41.50
21300;BME280;10809;49.476;11.016;2023-03-21T14:57:40;98058.66;;;17.36;41.36
21300;BME280;10809;49.476;11.016;2023-03-21T15:00:26;98050.63;;;17.36;41.45
21300;BME280;10809;49.476;11.016;2023-03-21T15:02:58;98047.13;;;17.35;41.09
21300;BME280;10809;49.476;11.016;2023-03-21T15:05:36;98048.09;;;17.34;41.33
21300;BME280;10809;49.476;11.016;2023-03-21T15:08:16;98038.50;;;17.32;41.26